Time;durP1;ratioP1;P1;durP2;ratioP2;P2;SDS_P1;SDS_P2;PMS_P1;PMS_P2;Temp;Humidity;BMP_temperature;BMP_pressure;BME280_temperature;BME280_humidity;BME280_pressure;Samples;Min_cycle;Max_cycle;Signal;HPM_P1;HPM_P2
2023/07/28 00:00:31;;;;;;;8.65;5.53;;;;;;;;;;5075180;28;20111;-79
2023/07/28 00:02:56;;;;;;;7.32;5.30;;;;;;;;;;5073669;28;20426;-79
2023/07/28 00:05:21;;;;;;;8.55;5.10;;;;;;;;;;5074810;28;20022;-79
2023/07/28 00:07:47;;;;;;;7.90;4.80;;;;;;;;;;5056955;28;20083;-79
2023/07/28 00:10:12;;;;;;;7.50;5.07;;;;;;;;;;5075078;28;20119;-79
2023/07/28 00:12:38;;;;;;;9.88;5.25;;;;;;;;;;5074898;28;20114;-79
2023/07/28 00:15:03;;;;;;;9.25;5.30;;;;;;;;;;5074735;28;20117;-78
2023/07/28 00:17:29;;;;;;;7.57;5.18;;;;;;;;;;5074873;28;20028;-79
2023/07/28 00:19:54;;;;;;;8.30;5.43;;;;;;;;;;5074610;28;20690;-79
2023/07/28 00:22:20;;;;;;;9.85;5.57;;;;;;;;;;5074577;28;20130;-79
2023/07/28 00:24:45;;;;;;;9.82;5.55;;;;;;;;;;5073291;28;20361;-78
2023/07/28 00:27:14;;;;;;;8.23;5.18;;;;;;;;;;5074527;28;20031;-79
2023/07/28 00:29:40;;;;;;;10.60;5.90;;;;;;;;;;5074534;28;20028;-78
2023/07/28 00:32:06;;;;;;;8.85;5.30;;;;;;;;;;5074621;28;20043;-79
2023/07/28 00:34:31;;;;;;;9.15;5.70;;;;;;;;;;5074218;28;20028;-79
2023/07/28 00:36:56;;;;;;;9.98;5.70;;;;;;;;;;5074369;28;20036;-78
2023/07/28 00:39:22;;;;;;;10.20;5.57;;;;;;;;;;5072746;28;20040;-78
2023/07/28 00:41:48;;;;;;;8.48;5.97;;;;;;;;;;5074387;28;20029;-78
2023/07/28 00:44:16;;;;;;;8.48;5.82;;;;;;;;;;5074413;28;20028;-79
2023/07/28 00:46:42;;;;;;;12.48;5.72;;;;;;;;;;5074903;28;20025;-79
2023/07/28 00:49:07;;;;;;;15.23;6.28;;;;;;;;;;5073087;28;20040;-78
2023/07/28 00:51:33;;;;;;;10.68;5.68;;;;;;;;;;5056329;28;20039;-79
2023/07/28 00:53:59;;;;;;;13.90;6.15;;;;;;;;;;5072999;28;20085;-79
2023/07/28 00:56:25;;;;;;;15.68;6.38;;;;;;;;;;5056336;28;20027;-79
2023/07/28 00:58:51;;;;;;;11.80;6.32;;;;;;;;;;5056186;28;20032;-79
2023/07/28 01:01:16;;;;;;;9.63;5.97;;;;;;;;;;5072820;28;20021;-79
2023/07/28 01:03:42;;;;;;;12.30;6.20;;;;;;;;;;5074220;28;20020;-79
2023/07/28 01:06:30;;;;;;;12.40;6.00;;;;;;;;;;5074075;28;20024;-79
2023/07/28 01:09:03;;;;;;;11.73;6.18;;;;;;;;;;5057897;28;20052;-79
2023/07/28 01:11:29;;;;;;;10.40;6.43;;;;;;;;;;5056243;28;20032;-79
2023/07/28 01:13:54;;;;;;;9.48;6.35;;;;;;;;;;5072618;28;20086;-79
2023/07/28 01:16:20;;;;;;;10.05;6.07;;;;;;;;;;5074137;28;20058;-79
2023/07/28 01:18:45;;;;;;;10.73;5.97;;;;;;;;;;5072955;28;20032;-79
2023/07/28 01:21:20;;;;;;;10.55;7.13;;;;;;;;;;5072618;28;20033;-80
2023/07/28 01:23:52;;;;;;;16.73;7.20;;;;;;;;;;5056992;28;20424;-78
2023/07/28 01:26:31;;;;;;;11.65;6.60;;;;;;;;;;5055914;28;20034;-78
2023/07/28 01:28:56;;;;;;;13.25;6.68;;;;;;;;;;5072448;28;20051;-79
2023/07/28 01:31:22;;;;;;;8.57;5.95;;;;;;;;;;5055933;28;20086;-79
2023/07/28 01:33:47;;;;;;;10.52;6.43;;;;;;;;;;5072644;28;20025;-78
2023/07/28 01:36:12;;;;;;;9.98;6.65;;;;;;;;;;5073766;28;20029;-79
2023/07/28 01:38:38;;;;;;;9.15;6.22;;;;;;;;;;5072649;28;20440;-78
2023/07/28 01:41:03;;;;;;;10.10;6.35;;;;;;;;;;5073449;28;20020;-78
2023/07/28 01:43:28;;;;;;;11.25;7.10;;;;;;;;;;5072591;28;20028;-78
2023/07/28 01:45:54;;;;;;;12.93;6.60;;;;;;;;;;5072663;28;20025;-79
2023/07/28 01:48:19;;;;;;;13.43;7.25;;;;;;;;;;5072713;28;20024;-79
2023/07/28 01:50:45;;;;;;;11.13;6.72;;;;;;;;;;5075243;28;20025;-78
2023/07/28 01:53:10;;;;;;;12.90;7.30;;;;;;;;;;5077349;28;20031;-79
2023/07/28 01:55:36;;;;;;;12.23;7.28;;;;;;;;;;5077374;28;20025;-79
2023/07/28 01:58:02;;;;;;;13.38;7.60;;;;;;;;;;5077617;28;20116;-78
2023/07/28 02:00:27;;;;;;;12.30;7.47;;;;;;;;;;5077581;28;20035;-78
2023/07/28 02:02:53;;;;;;;14.02;8.20;;;;;;;;;;5077258;28;20032;-78
2023/07/28 02:05:19;;;;;;;13.77;7.85;;;;;;;;;;5076317;28;20024;-78
2023/07/28 02:07:45;;;;;;;10.18;7.10;;;;;;;;;;5075916;28;20058;-78
2023/07/28 02:10:10;;;;;;;10.43;7.53;;;;;;;;;;5077148;28;20438;-78
2023/07/28 02:12:39;;;;;;;18.23;8.35;;;;;;;;;;5076390;28;20032;-79
2023/07/28 02:15:07;;;;;;;13.15;8.00;;;;;;;;;;5075756;28;20029;-78
2023/07/28 02:17:33;;;;;;;15.70;8.98;;;;;;;;;;5075738;28;20044;-77
2023/07/28 02:19:58;;;;;;;15.88;8.93;;;;;;;;;;5077115;28;20067;-77
2023/07/28 02:22:24;;;;;;;14.57;8.27;;;;;;;;;;5075733;28;20025;-78
2023/07/28 02:24:49;;;;;;;12.02;8.40;;;;;;;;;;5075774;28;20025;-77
2023/07/28 02:27:14;;;;;;;14.45;8.43;;;;;;;;;;5076021;28;20118;-78
2023/07/28 02:29:41;;;;;;;13.15;8.50;;;;;;;;;;5075714;28;20078;-78
2023/07/28 02:32:07;;;;;;;12.90;8.88;;;;;;;;;;5077000;28;20024;-78
2023/07/28 02:34:32;;;;;;;15.60;8.27;;;;;;;;;;5075651;28;20028;-78
2023/07/28 02:36:58;;;;;;;14.77;8.52;;;;;;;;;;5075689;28;20089;-78
2023/07/28 02:39:24;;;;;;;14.18;8.77;;;;;;;;;;5075844;28;20025;-77
2023/07/28 02:41:50;;;;;;;16.08;8.75;;;;;;;;;;5076054;28;20025;-78
2023/07/28 02:44:15;;;;;;;16.90;8.57;;;;;;;;;;5076483;28;20581;-78
2023/07/28 02:46:40;;;;;;;14.27;8.85;;;;;;;;;;5076624;28;20419;-77
2023/07/28 02:49:06;;;;;;;18.15;8.60;;;;;;;;;;5076524;28;20085;-78
2023/07/28 02:51:33;;;;;;;14.27;8.85;;;;;;;;;;5076726;28;20020;-78
2023/07/28 02:53:58;;;;;;;15.55;8.55;;;;;;;;;;5076485;28;20024;-77
2023/07/28 02:56:24;;;;;;;14.45;9.25;;;;;;;;;;5076362;28;20335;-78
2023/07/28 02:58:49;;;;;;;16.63;9.07;;;;;;;;;;5075135;28;20025;-77
2023/07/28 03:01:15;;;;;;;15.75;8.65;;;;;;;;;;5078277;28;20142;-78
2023/07/28 03:03:40;;;;;;;15.27;9.50;;;;;;;;;;5077653;28;20032;-78
2023/07/28 03:06:05;;;;;;;15.30;9.15;;;;;;;;;;5076907;28;20024;-78
2023/07/28 03:08:31;;;;;;;17.40;10.02;;;;;;;;;;5075350;28;20052;-78
2023/07/28 03:10:57;;;;;;;18.98;10.02;;;;;;;;;;5076063;28;20032;-78
2023/07/28 03:13:23;;;;;;;20.83;9.95;;;;;;;;;;5075927;28;20032;-78
2023/07/28 03:15:48;;;;;;;18.75;10.20;;;;;;;;;;5076342;28;20093;-78
2023/07/28 03:18:14;;;;;;;17.30;9.50;;;;;;;;;;5057850;28;20129;-79
2023/07/28 03:20:39;;;;;;;17.05;9.57;;;;;;;;;;5075797;28;20041;-78
2023/07/28 03:23:04;;;;;;;20.33;9.65;;;;;;;;;;5075898;28;20033;-79
2023/07/28 03:25:30;;;;;;;17.98;9.45;;;;;;;;;;5074175;28;20445;-78
2023/07/28 03:27:55;;;;;;;19.10;10.07;;;;;;;;;;5075720;28;20461;-78
2023/07/28 03:30:21;;;;;;;17.63;10.27;;;;;;;;;;5074820;28;20024;-78
2023/07/28 03:32:46;;;;;;;21.58;10.05;;;;;;;;;;5074430;28;20131;-79
2023/07/28 03:35:12;;;;;;;16.63;9.93;;;;;;;;;;5073985;28;20077;-78
2023/07/28 03:37:37;;;;;;;19.08;10.45;;;;;;;;;;5057427;28;20047;-78
2023/07/28 03:40:03;;;;;;;18.70;10.25;;;;;;;;;;5075659;28;20124;-79
2023/07/28 03:42:28;;;;;;;19.95;10.75;;;;;;;;;;5075481;28;20037;-78
2023/07/28 03:44:54;;;;;;;24.92;10.65;;;;;;;;;;5073966;28;20033;-78
2023/07/28 03:47:19;;;;;;;21.33;10.52;;;;;;;;;;5074178;28;20179;-79
2023/07/28 03:49:44;;;;;;;21.80;10.30;;;;;;;;;;5074724;28;20032;-78
2023/07/28 03:52:10;;;;;;;21.15;10.65;;;;;;;;;;5075052;28;20031;-78
2023/07/28 03:54:35;;;;;;;23.67;10.38;;;;;;;;;;5073884;28;20438;-78
2023/07/28 03:57:01;;;;;;;20.98;10.52;;;;;;;;;;5075173;28;20028;-78
2023/07/28 03:59:26;;;;;;;18.75;10.52;;;;;;;;;;5074871;28;20426;-78
2023/07/28 04:01:52;;;;;;;16.90;10.43;;;;;;;;;;5074917;28;20034;-77
2023/07/28 04:04:18;;;;;;;19.92;10.70;;;;;;;;;;5073474;28;20422;-78
2023/07/28 04:06:44;;;;;;;21.13;11.15;;;;;;;;;;5057175;28;20060;-78
2023/07/28 04:09:11;;;;;;;24.65;10.77;;;;;;;;;;5056619;28;20037;-79
2023/07/28 04:11:37;;;;;;;27.00;11.65;;;;;;;;;;5074765;28;20035;-78
2023/07/28 04:14:02;;;;;;;23.35;11.00;;;;;;;;;;5056443;28;20029;-78
2023/07/28 04:16:28;;;;;;;29.05;11.50;;;;;;;;;;5073389;28;20029;-78
2023/07/28 04:18:53;;;;;;;29.77;11.73;;;;;;;;;;5073057;28;20364;-78
2023/07/28 04:21:18;;;;;;;29.85;11.55;;;;;;;;;;5074497;28;20431;-78
2023/07/28 04:23:44;;;;;;;26.40;11.38;;;;;;;;;;5074398;28;20038;-78
2023/07/28 04:26:09;;;;;;;21.50;11.40;;;;;;;;;;5074434;28;20024;-78
2023/07/28 04:28:35;;;;;;;21.42;11.00;;;;;;;;;;5073030;28;20058;-79
2023/07/28 04:31:00;;;;;;;26.08;11.13;;;;;;;;;;5056497;28;20082;-78
2023/07/28 04:33:26;;;;;;;24.08;10.75;;;;;;;;;;5073093;28;20126;-78
2023/07/28 04:35:51;;;;;;;20.92;11.15;;;;;;;;;;5074450;28;20502;-79
2023/07/28 04:38:18;;;;;;;27.52;11.73;;;;;;;;;;5074195;28;20025;-79
2023/07/28 04:40:43;;;;;;;26.83;11.77;;;;;;;;;;5074249;28;20035;-79
2023/07/28 04:43:09;;;;;;;24.08;11.90;;;;;;;;;;5074378;28;20029;-78
2023/07/28 04:45:34;;;;;;;27.00;12.95;;;;;;;;;;5073064;28;20036;-79
2023/07/28 04:48:00;;;;;;;23.25;11.35;;;;;;;;;;5073098;28;20031;-80
2023/07/28 04:50:25;;;;;;;28.85;12.23;;;;;;;;;;5072947;28;20035;-80
2023/07/28 04:52:51;;;;;;;26.92;12.75;;;;;;;;;;5074127;28;20029;-80
2023/07/28 04:55:16;;;;;;;23.90;12.13;;;;;;;;;;5056082;28;20424;-79
2023/07/28 04:57:41;;;;;;;28.63;12.35;;;;;;;;;;5072783;28;20381;-80
2023/07/28 05:00:08;;;;;;;23.45;12.05;;;;;;;;;;5074328;28;20059;-79
2023/07/28 05:02:34;;;;;;;28.98;11.30;;;;;;;;;;5072853;28;20425;-80
2023/07/28 05:04:59;;;;;;;28.02;11.73;;;;;;;;;;5073362;28;20051;-80
2023/07/28 05:07:25;;;;;;;23.33;11.23;;;;;;;;;;5074042;28;20020;-78
2023/07/28 05:09:50;;;;;;;22.85;11.75;;;;;;;;;;5056285;28;20412;-80
2023/07/28 05:12:16;;;;;;;21.10;11.27;;;;;;;;;;5074336;28;20085;-80
2023/07/28 05:14:41;;;;;;;29.95;10.73;;;;;;;;;;5074484;28;20066;-80
2023/07/28 05:17:07;;;;;;;18.95;9.43;;;;;;;;;;5073658;28;20438;-80
2023/07/28 05:19:32;;;;;;;19.77;9.77;;;;;;;;;;5072747;28;20032;-80
2023/07/28 05:21:57;;;;;;;18.33;9.20;;;;;;;;;;5072875;28;20028;-80
2023/07/28 05:24:23;;;;;;;19.33;9.57;;;;;;;;;;5073434;28;20434;-79
2023/07/28 05:26:48;;;;;;;23.15;9.70;;;;;;;;;;5077288;28;20033;-80
2023/07/28 05:29:14;;;;;;;23.23;9.30;;;;;;;;;;5076766;28;20151;-80
2023/07/28 05:31:39;;;;;;;22.05;9.95;;;;;;;;;;5077784;28;20029;-79
2023/07/28 05:34:05;;;;;;;22.83;8.95;;;;;;;;;;5076897;28;20024;-79
2023/07/28 05:36:30;;;;;;;20.27;10.05;;;;;;;;;;5077787;28;20438;-80
2023/07/28 05:38:57;;;;;;;16.27;8.82;;;;;;;;;;5076615;28;20032;-80
2023/07/28 05:41:23;;;;;;;11.63;7.35;;;;;;;;;;5078031;28;20045;-80
2023/07/28 05:43:49;;;;;;;13.27;6.45;;;;;;;;;;5076450;28;20127;-83
2023/07/28 05:46:14;;;;;;;10.77;6.28;;;;;;;;;;5076404;28;20052;-81
2023/07/28 05:48:40;;;;;;;8.48;5.75;;;;;;;;;;5076491;28;20041;-81
2023/07/28 05:51:05;;;;;;;12.68;6.07;;;;;;;;;;5077421;28;20032;-81
2023/07/28 05:53:31;;;;;;;7.50;5.30;;;;;;;;;;5076145;28;20036;-81
2023/07/28 05:55:56;;;;;;;9.10;5.15;;;;;;;;;;5076107;28;20059;-82
2023/07/28 05:58:22;;;;;;;8.23;4.70;;;;;;;;;;5077329;28;20067;-82
2023/07/28 06:00:48;;;;;;;7.07;4.25;;;;;;;;;;5059380;28;20442;-82
2023/07/28 06:03:13;;;;;;;16.13;4.70;;;;;;;;;;5076682;28;20039;-82
2023/07/28 06:05:42;;;;;;;9.90;4.13;;;;;;;;;;5076569;28;20048;-82
2023/07/28 06:08:08;;;;;;;7.80;3.97;;;;;;;;;;5078429;28;20040;-82
2023/07/28 06:10:33;;;;;;;8.95;3.78;;;;;;;;;;5097514;28;20040;-81
2023/07/28 06:12:59;;;;;;;5.63;3.40;;;;;;;;;;5081745;28;20024;-82
2023/07/28 06:15:24;;;;;;;5.70;3.53;;;;;;;;;;5099064;28;20037;-81
2023/07/28 06:17:50;;;;;;;7.38;3.90;;;;;;;;;;5100192;28;20039;-81
2023/07/28 06:20:15;;;;;;;5.95;3.20;;;;;;;;;;5075229;28;20036;-82
2023/07/28 06:22:41;;;;;;;9.07;3.25;;;;;;;;;;5075927;28;20024;-81
2023/07/28 06:25:07;;;;;;;6.25;3.30;;;;;;;;;;5075800;28;20082;-83
2023/07/28 06:27:32;;;;;;;5.75;3.05;;;;;;;;;;5059333;28;20032;-81
2023/07/28 06:29:58;;;;;;;3.63;3.10;;;;;;;;;;5076040;28;20036;-81
2023/07/28 06:32:23;;;;;;;5.57;3.55;;;;;;;;;;5075643;28;20456;-80
2023/07/28 06:34:49;;;;;;;3.97;3.17;;;;;;;;;;5076667;28;20028;-81
2023/07/28 06:37:15;;;;;;;4.45;3.00;;;;;;;;;;5058405;28;20119;-81
2023/07/28 06:39:40;;;;;;;3.80;3.00;;;;;;;;;;5075752;28;20119;-82
2023/07/28 06:42:06;;;;;;;7.25;3.03;;;;;;;;;;5059204;28;20035;-82
2023/07/28 06:44:31;;;;;;;9.27;3.17;;;;;;;;;;5078827;28;20024;-82
2023/07/28 06:46:57;;;;;;;4.53;3.25;;;;;;;;;;5097100;28;20020;-81
2023/07/28 06:49:23;;;;;;;4.78;3.03;;;;;;;;;;5099242;28;20016;-80
2023/07/28 06:51:48;;;;;;;5.15;2.70;;;;;;;;;;5087477;28;20029;-79
2023/07/28 06:54:13;;;;;;;5.38;3.15;;;;;;;;;;5076573;28;20030;-80
2023/07/28 06:56:39;;;;;;;7.72;3.10;;;;;;;;;;5076731;28;20021;-79
2023/07/28 06:59:06;;;;;;;7.18;3.13;;;;;;;;;;5058847;28;20060;-79
2023/07/28 07:01:32;;;;;;;6.38;3.17;;;;;;;;;;5076466;28;20025;-79
2023/07/28 07:03:57;;;;;;;4.88;3.05;;;;;;;;;;5075322;28;20074;-79
2023/07/28 07:06:23;;;;;;;4.75;3.20;;;;;;;;;;5075191;28;20127;-79
2023/07/28 07:08:48;;;;;;;3.42;3.08;;;;;;;;;;5076549;28;20063;-80
2023/07/28 07:11:14;;;;;;;6.30;3.08;;;;;;;;;;5076320;28;20537;-80
2023/07/28 07:13:40;;;;;;;7.22;3.35;;;;;;;;;;5076199;28;20039;-80
2023/07/28 07:16:06;;;;;;;7.85;3.30;;;;;;;;;;5076079;28;20024;-80
2023/07/28 07:18:32;;;;;;;5.25;3.65;;;;;;;;;;5076046;28;20523;-79
2023/07/28 07:21:02;;;;;;;3.55;3.25;;;;;;;;;;5077233;28;20025;-78
2023/07/28 07:23:27;;;;;;;6.43;3.83;;;;;;;;;;5076603;28;20025;-79
2023/07/28 07:25:53;;;;;;;5.60;3.22;;;;;;;;;;5075927;28;20078;-81
2023/07/28 07:28:19;;;;;;;5.32;3.65;;;;;;;;;;5075665;28;20454;-80
2023/07/28 07:30:44;;;;;;;4.10;2.60;;;;;;;;;;5074956;28;20029;-79
2023/07/28 07:33:10;;;;;;;4.88;2.95;;;;;;;;;;5074723;28;20024;-79
2023/07/28 07:35:37;;;;;;;5.05;2.85;;;;;;;;;;5075706;28;20040;-79
2023/07/28 07:38:03;;;;;;;4.70;3.13;;;;;;;;;;5075799;28;20021;-80
2023/07/28 07:40:29;;;;;;;3.83;2.97;;;;;;;;;;5074353;28;20507;-79
2023/07/28 07:42:55;;;;;;;4.05;3.10;;;;;;;;;;5057363;28;20032;-79
2023/07/28 07:45:21;;;;;;;4.53;2.80;;;;;;;;;;5075405;28;20016;-80
2023/07/28 07:47:46;;;;;;;7.68;2.88;;;;;;;;;;5074568;28;20021;-79
2023/07/28 07:50:13;;;;;;;5.80;3.08;;;;;;;;;;5074986;28;20036;-79
2023/07/28 07:52:39;;;;;;;4.57;3.25;;;;;;;;;;5075479;28;20487;-79
2023/07/28 07:55:06;;;;;;;3.85;3.00;;;;;;;;;;5074978;28;20033;-80
2023/07/28 07:57:31;;;;;;;5.50;2.92;;;;;;;;;;5074673;28;20529;-80
2023/07/28 07:59:59;;;;;;;3.78;2.85;;;;;;;;;;5073924;28;20132;-80
2023/07/28 08:02:25;;;;;;;7.03;2.95;;;;;;;;;;5074241;28;20029;-79
2023/07/28 08:04:51;;;;;;;10.52;3.22;;;;;;;;;;5073751;28;20025;-79
2023/07/28 08:07:17;;;;;;;2.50;2.28;;;;;;;;;;5040692;28;20036;-80
2023/07/28 08:09:42;;;;;;;3.58;2.70;;;;;;;;;;5074622;28;20105;-79
2023/07/28 08:12:08;;;;;;;13.20;3.35;;;;;;;;;;5073340;28;20029;-80
2023/07/28 08:14:34;;;;;;;4.28;2.42;;;;;;;;;;5073678;28;20032;-78
2023/07/28 08:16:59;;;;;;;2.85;2.63;;;;;;;;;;5075348;28;20024;-78
2023/07/28 08:19:25;;;;;;;4.00;2.60;;;;;;;;;;5074699;28;20106;-79
2023/07/28 08:21:50;;;;;;;3.95;2.90;;;;;;;;;;5074690;28;20043;-79
2023/07/28 08:24:16;;;;;;;4.70;2.75;;;;;;;;;;5056659;28;20028;-78
2023/07/28 08:26:41;;;;;;;11.07;3.03;;;;;;;;;;5074338;28;20085;-80
2023/07/28 08:29:07;;;;;;;7.78;3.08;;;;;;;;;;5074528;28;20032;-80
2023/07/28 08:31:32;;;;;;;8.15;3.47;;;;;;;;;;5074813;28;20395;-79
2023/07/28 08:33:58;;;;;;;5.93;3.17;;;;;;;;;;5073474;28;20045;-79
2023/07/28 08:36:23;;;;;;;3.63;3.20;;;;;;;;;;5074470;28;20035;-79
2023/07/28 08:38:48;;;;;;;3.92;3.30;;;;;;;;;;5074441;28;20166;-79
2023/07/28 08:41:14;;;;;;;9.63;3.47;;;;;;;;;;5074421;28;20423;-79
2023/07/28 08:43:40;;;;;;;5.30;3.70;;;;;;;;;;5074659;28;20029;-78
2023/07/28 08:46:05;;;;;;;4.07;3.20;;;;;;;;;;5056471;28;20059;-80
2023/07/28 08:48:31;;;;;;;6.53;3.20;;;;;;;;;;5040077;28;20028;-85
2023/07/28 08:50:56;;;;;;;6.80;3.22;;;;;;;;;;5056468;28;20051;-83
2023/07/28 08:53:22;;;;;;;6.43;3.42;;;;;;;;;;5074211;28;20025;-80
2023/07/28 08:55:47;;;;;;;4.97;3.40;;;;;;;;;;5074270;28;20033;-79
2023/07/28 08:58:23;;;;;;;6.18;3.30;;;;;;;;;;5074736;28;20032;-79
2023/07/28 09:00:49;;;;;;;7.30;3.47;;;;;;;;;;5072650;28;20024;-79
2023/07/28 09:03:16;;;;;;;6.15;3.30;;;;;;;;;;5074287;28;20032;-80
2023/07/28 09:05:42;;;;;;;7.38;3.30;;;;;;;;;;5072899;28;20032;-79
2023/07/28 09:08:09;;;;;;;6.00;3.30;;;;;;;;;;5074147;28;20041;-79
2023/07/28 09:10:49;;;;;;;7.13;3.13;;;;;;;;;;5057364;28;20059;-79
2023/07/28 09:13:15;;;;;;;4.18;2.92;;;;;;;;;;5074048;28;20478;-80
2023/07/28 09:15:41;;;;;;;3.78;2.70;;;;;;;;;;5074096;28;20036;-79
2023/07/28 09:18:12;;;;;;;5.88;2.63;;;;;;;;;;5074010;28;20537;-79
2023/07/28 09:20:40;;;;;;;8.85;3.05;;;;;;;;;;5074231;28;20036;-80
2023/07/28 09:23:07;;;;;;;3.13;2.63;;;;;;;;;;5056222;28;20032;-79
2023/07/28 09:25:33;;;;;;;5.70;2.83;;;;;;;;;;5072881;28;20033;-80
2023/07/28 09:27:58;;;;;;;7.78;2.85;;;;;;;;;;5072888;28;20037;-79
2023/07/28 09:30:24;;;;;;;5.53;2.60;;;;;;;;;;5056071;28;20066;-79
2023/07/28 09:32:50;;;;;;;5.93;3.00;;;;;;;;;;5073765;28;20500;-79
2023/07/28 09:35:16;;;;;;;5.65;2.65;;;;;;;;;;5055995;28;20047;-79
2023/07/28 09:37:44;;;;;;;7.25;2.97;;;;;;;;;;5074823;28;20478;-80
2023/07/28 09:40:14;;;;;;;6.00;3.00;;;;;;;;;;5056768;28;20032;-80
2023/07/28 09:42:44;;;;;;;4.18;3.10;;;;;;;;;;5073883;28;20032;-79
2023/07/28 09:45:10;;;;;;;6.60;3.05;;;;;;;;;;5073725;28;20509;-78
2023/07/28 09:47:36;;;;;;;4.65;3.03;;;;;;;;;;5073708;28;20158;-78
2023/07/28 09:50:06;;;;;;;5.22;3.00;;;;;;;;;;5073781;28;20453;-79
2023/07/28 09:52:43;;;;;;;5.38;2.75;;;;;;;;;;5055828;28;20170;-79
2023/07/28 09:55:10;;;;;;;6.60;2.80;;;;;;;;;;5073642;28;20115;-79
2023/07/28 09:57:51;;;;;;;8.27;3.78;;;;;;;;;;5073587;28;20039;-79
2023/07/28 10:00:17;;;;;;;8.27;3.13;;;;;;;;;;5072496;28;20036;-78
2023/07/28 10:02:42;;;;;;;6.13;2.55;;;;;;;;;;5072461;28;20476;-79
2023/07/28 10:05:08;;;;;;;9.52;2.97;;;;;;;;;;5073051;28;20068;-79
2023/07/28 10:07:40;;;;;;;5.70;2.88;;;;;;;;;;5073572;28;20029;-79
2023/07/28 10:10:10;;;;;;;3.47;2.80;;;;;;;;;;5056462;28;20067;-78
2023/07/28 10:12:49;;;;;;;9.57;6.82;;;;;;;;;;5059117;28;20038;-78
2023/07/28 10:15:16;;;;;;;5.50;2.80;;;;;;;;;;5077750;28;20060;-79
2023/07/28 10:17:49;;;;;;;4.90;2.70;;;;;;;;;;5077656;28;20086;-79
2023/07/28 10:20:41;;;;;;;6.93;2.70;;;;;;;;;;5078231;28;20433;-77
2023/07/28 10:23:16;;;;;;;3.80;2.45;;;;;;;;;;5077640;28;20020;-79
2023/07/28 10:25:42;;;;;;;3.70;2.55;;;;;;;;;;5076886;28;20374;-77
2023/07/28 10:28:36;;;;;;;3.35;2.40;;;;;;;;;;5059653;28;20075;-78
2023/07/28 10:31:02;;;;;;;2.65;2.45;;;;;;;;;;5077241;28;20035;-78
2023/07/28 10:33:35;;;;;;;4.60;2.20;;;;;;;;;;5076982;28;20028;-78
2023/07/28 10:36:38;;;;;;;5.10;2.63;;;;;;;;;;5076491;28;20024;-78
2023/07/28 10:39:14;;;;;;;4.47;2.50;;;;;;;;;;5076112;28;20037;-77
2023/07/28 10:41:54;;;;;;;5.40;2.70;;;;;;;;;;5077533;28;20035;-78
2023/07/28 10:44:20;;;;;;;3.42;2.70;;;;;;;;;;5061544;28;20080;-77
2023/07/28 10:46:45;;;;;;;6.97;3.10;;;;;;;;;;5076176;28;20059;-78
2023/07/28 10:49:11;;;;;;;3.28;2.33;;;;;;;;;;5077245;28;20122;-77
2023/07/28 10:51:36;;;;;;;4.10;2.55;;;;;;;;;;5061717;28;20441;-77
2023/07/28 10:54:02;;;;;;;3.33;2.60;;;;;;;;;;5078548;28;20089;-77
2023/07/28 10:56:28;;;;;;;3.13;2.42;;;;;;;;;;5077907;28;20375;-78
2023/07/28 10:58:57;;;;;;;5.82;2.67;;;;;;;;;;5076496;28;20036;-78
2023/07/28 11:01:31;;;;;;;8.65;2.40;;;;;;;;;;5077385;28;20032;-77
2023/07/28 11:03:56;;;;;;;5.13;2.53;;;;;;;;;;5077622;28;20146;-77
2023/07/28 11:06:22;;;;;;;2.75;2.40;;;;;;;;;;5075688;28;20039;-78
2023/07/28 11:08:48;;;;;;;7.25;2.65;;;;;;;;;;5076897;28;20048;-78
2023/07/28 11:11:13;;;;;;;4.03;2.70;;;;;;;;;;5059467;28;20559;-78
2023/07/28 11:13:39;;;;;;;4.20;2.70;;;;;;;;;;5059427;28;20032;-78
2023/07/28 11:16:04;;;;;;;3.47;2.53;;;;;;;;;;5076898;28;20032;-77
2023/07/28 11:18:30;;;;;;;4.78;2.47;;;;;;;;;;5075730;28;20088;-77
2023/07/28 11:20:55;;;;;;;5.68;2.72;;;;;;;;;;5077825;28;20158;-77
2023/07/28 11:23:21;;;;;;;4.82;2.53;;;;;;;;;;5079389;28;20039;-76
2023/07/28 11:25:47;;;;;;;5.07;2.60;;;;;;;;;;5077710;28;20035;-77
2023/07/28 11:28:12;;;;;;;6.25;2.47;;;;;;;;;;5078143;28;20031;-78
2023/07/28 11:30:38;;;;;;;3.58;2.40;;;;;;;;;;5058362;28;20453;-78
2023/07/28 11:33:03;;;;;;;3.92;2.38;;;;;;;;;;5076469;28;20032;-79
2023/07/28 11:35:29;;;;;;;4.60;2.65;;;;;;;;;;5074748;28;20029;-78
2023/07/28 11:37:54;;;;;;;3.88;2.40;;;;;;;;;;5075871;28;20065;-78
2023/07/28 11:40:21;;;;;;;3.08;2.78;;;;;;;;;;5074619;28;20369;-78
2023/07/28 11:42:49;;;;;;;3.88;3.00;;;;;;;;;;5075012;28;20044;-77
2023/07/28 11:45:16;;;;;;;10.17;2.63;;;;;;;;;;5076140;28;20086;-78
2023/07/28 11:48:05;;;;;;;4.95;2.80;;;;;;;;;;5074167;28;20026;-78
2023/07/28 11:50:38;;;;;;;4.63;2.92;;;;;;;;;;5068185;28;20037;-78
2023/07/28 11:53:03;;;;;;;3.72;2.78;;;;;;;;;;5075941;28;20063;-80
2023/07/28 11:55:29;;;;;;;4.57;2.95;;;;;;;;;;5075532;28;20056;-80
2023/07/28 11:57:54;;;;;;;3.08;2.60;;;;;;;;;;5074069;28;20028;-80
2023/07/28 12:00:34;;;;;;;4.38;2.70;;;;;;;;;;5074182;28;20035;-80
2023/07/28 12:03:14;;;;;;;4.60;2.92;;;;;;;;;;5074946;28;20039;-80
2023/07/28 12:05:41;;;;;;;5.18;3.00;;;;;;;;;;5074197;28;20513;-80
2023/07/28 12:08:09;;;;;;;3.70;2.88;;;;;;;;;;5075178;28;20052;-80
2023/07/28 12:10:34;;;;;;;5.18;3.15;;;;;;;;;;5074466;28;20020;-79
2023/07/28 12:13:05;;;;;;;9.18;2.88;;;;;;;;;;5073337;28;20041;-80
2023/07/28 12:15:31;;;;;;;3.42;2.80;;;;;;;;;;5075324;28;20431;-80
2023/07/28 12:18:13;;;;;;;3.42;2.70;;;;;;;;;;5075461;28;20035;-81
2023/07/28 12:20:49;;;;;;;4.35;2.90;;;;;;;;;;5074353;28;20032;-80
2023/07/28 12:23:19;;;;;;;4.32;3.22;;;;;;;;;;5074183;28;20071;-80
2023/07/28 12:25:44;;;;;;;5.43;3.33;;;;;;;;;;5074278;28;20107;-81
2023/07/28 12:28:10;;;;;;;6.13;3.38;;;;;;;;;;5056908;28;20437;-79
2023/07/28 12:30:35;;;;;;;6.05;2.70;;;;;;;;;;5075107;28;20373;-79
2023/07/28 12:33:01;;;;;;;5.15;3.08;;;;;;;;;;5073634;28;20442;-80
2023/07/28 12:35:30;;;;;;;6.65;3.08;;;;;;;;;;5073871;28;20037;-80
2023/07/28 12:37:57;;;;;;;4.70;3.15;;;;;;;;;;5073084;28;20314;-79
2023/07/28 12:40:22;;;;;;;4.95;3.15;;;;;;;;;;5074832;28;20043;-80
2023/07/28 12:42:47;;;;;;;5.18;2.80;;;;;;;;;;5075025;28;20028;-80
2023/07/28 12:45:14;;;;;;;4.40;2.90;;;;;;;;;;5073741;28;20035;-79
2023/07/28 12:47:40;;;;;;;10.13;3.40;;;;;;;;;;5056661;28;20032;-80
2023/07/28 12:50:08;;;;;;;4.45;3.05;;;;;;;;;;5074423;28;20090;-80
2023/07/28 12:52:34;;;;;;;5.80;3.15;;;;;;;;;;5074525;28;20460;-80
2023/07/28 12:54:59;;;;;;;5.18;3.17;;;;;;;;;;5074318;28;20025;-79
2023/07/28 12:57:25;;;;;;;4.25;3.15;;;;;;;;;;5074541;28;20032;-80
2023/07/28 12:59:50;;;;;;;3.97;2.90;;;;;;;;;;5074626;28;20082;-79
2023/07/28 13:02:17;;;;;;;4.80;3.42;;;;;;;;;;5074000;28;20031;-80
2023/07/28 13:04:42;;;;;;;5.47;3.28;;;;;;;;;;5073093;28;20028;-78
2023/07/28 13:07:07;;;;;;;6.72;3.20;;;;;;;;;;5073348;28;20028;-80
2023/07/28 13:09:33;;;;;;;5.07;3.47;;;;;;;;;;5073817;28;20051;-80
2023/07/28 13:11:58;;;;;;;6.57;3.35;;;;;;;;;;5073326;28;20442;-79
2023/07/28 13:14:24;;;;;;;4.95;3.28;;;;;;;;;;5074477;28;20032;-80
2023/07/28 13:16:50;;;;;;;5.85;3.05;;;;;;;;;;5073888;28;20428;-79
2023/07/28 13:19:16;;;;;;;4.82;3.13;;;;;;;;;;5074041;28;20020;-80
2023/07/28 13:21:41;;;;;;;5.65;3.45;;;;;;;;;;5056342;28;20119;-79
2023/07/28 13:24:06;;;;;;;3.63;3.00;;;;;;;;;;5073253;28;20055;-79
2023/07/28 13:26:32;;;;;;;3.88;3.15;;;;;;;;;;5072885;28;20029;-80
2023/07/28 13:28:58;;;;;;;5.43;3.30;;;;;;;;;;5073892;28;20037;-79
2023/07/28 13:31:24;;;;;;;9.57;3.35;;;;;;;;;;5072811;28;20025;-79
2023/07/28 13:33:49;;;;;;;5.57;3.47;;;;;;;;;;5073718;28;20419;-79
2023/07/28 13:36:15;;;;;;;4.68;3.50;;;;;;;;;;5079054;28;20028;-79
2023/07/28 13:38:41;;;;;;;6.20;3.70;;;;;;;;;;5079938;28;20511;-79
2023/07/28 13:41:06;;;;;;;5.13;3.30;;;;;;;;;;5082103;28;20415;-79
2023/07/28 13:43:36;;;;;;;4.88;3.42;;;;;;;;;;5078890;28;20058;-79
2023/07/28 13:46:02;;;;;;;5.05;3.45;;;;;;;;;;5080954;28;20139;-79
2023/07/28 13:48:28;;;;;;;5.28;3.55;;;;;;;;;;5077683;28;20473;-80
2023/07/28 13:50:53;;;;;;;7.63;3.67;;;;;;;;;;5078016;28;20035;-80
2023/07/28 13:53:18;;;;;;;5.45;3.60;;;;;;;;;;5076528;28;20024;-81
2023/07/28 13:55:44;;;;;;;6.03;3.55;;;;;;;;;;5076672;28;20020;-81
2023/07/28 13:58:10;;;;;;;4.25;3.58;;;;;;;;;;5077730;28;20093;-79
2023/07/28 14:00:35;;;;;;;6.15;3.40;;;;;;;;;;5077493;28;20130;-81
2023/07/28 14:03:01;;;;;;;8.18;3.78;;;;;;;;;;5077449;28;20031;-81
2023/07/28 14:05:27;;;;;;;4.38;3.65;;;;;;;;;;5076257;28;20033;-81
2023/07/28 14:07:52;;;;;;;4.32;3.70;;;;;;;;;;5077598;28;20051;-81
2023/07/28 14:10:18;;;;;;;6.38;3.97;;;;;;;;;;5077273;28;20028;-80
2023/07/28 14:12:43;;;;;;;5.85;3.70;;;;;;;;;;5077237;28;20020;-80
2023/07/28 14:15:09;;;;;;;9.63;4.30;;;;;;;;;;5078435;28;20374;-80
2023/07/28 14:17:34;;;;;;;5.07;3.80;;;;;;;;;;5077391;28;20020;-80
2023/07/28 14:20:00;;;;;;;5.72;4.15;;;;;;;;;;5077156;28;20016;-81
2023/07/28 14:22:25;;;;;;;5.20;3.90;;;;;;;;;;5077174;28;20021;-81
2023/07/28 14:24:50;;;;;;;6.95;3.65;;;;;;;;;;5076110;28;20044;-80
2023/07/28 14:27:16;;;;;;;7.95;3.75;;;;;;;;;;5076718;28;20460;-80
2023/07/28 14:29:41;;;;;;;5.78;4.03;;;;;;;;;;5077121;28;20039;-81
2023/07/28 14:32:07;;;;;;;5.10;4.03;;;;;;;;;;5076903;28;20028;-81